Time;durP1;ratioP1;P1;durP2;ratioP2;P2;SDS_P1;SDS_P2;PMS_P1;PMS_P2;Temp;Humidity;BMP_temperature;BMP_pressure;BME280_temperature;BME280_humidity;BME280_pressure;Samples;Min_cycle;Max_cycle;Signal;HPM_P1;HPM_P2
2022/06/29 00:00:20;;;;;;;2.70;2.50;;;23.50;77.50;;;;;;5046424;28;20206;-78
2022/06/29 00:02:46;;;;;;;3.10;2.90;;;23.50;76.60;;;;;;5057431;28;20198;-79
2022/06/29 00:05:16;;;;;;;3.40;3.10;;;23.50;76.70;;;;;;5055006;28;20212;-77
2022/06/29 00:07:43;;;;;;;2.85;2.65;;;23.50;76.70;;;;;;5063315;28;20221;-78
2022/06/29 00:10:12;;;;;;;2.90;2.70;;;23.50;76.70;;;;;;5047048;28;20281;-80
2022/06/29 00:12:39;;;;;;;3.38;3.17;;;23.50;76.60;;;;;;5063644;28;20193;-78
2022/06/29 00:15:31;;;;;;;3.22;2.95;;;23.50;76.60;;;;;;5064176;28;20669;-79
2022/06/29 00:17:56;;;;;;;3.10;2.90;;;23.50;76.50;;;;;;5023794;28;20195;-78
2022/06/29 00:20:23;;;;;;;3.05;2.85;;;23.50;76.40;;;;;;5031976;28;20237;-78
2022/06/29 00:22:49;;;;;;;2.83;2.63;;;23.50;76.40;;;;;;5053275;28;20174;-77
2022/06/29 00:25:16;;;;;;;2.80;2.60;;;23.50;76.50;;;;;;5063464;28;20256;-78
2022/06/29 00:27:43;;;;;;;2.80;2.60;;;23.50;76.40;;;;;;5062407;28;20268;-79
2022/06/29 00:30:10;;;;;;;3.00;2.80;;;23.50;76.40;;;;;;5063319;28;20222;-77
2022/06/29 00:32:37;;;;;;;3.22;3.03;;;23.50;76.40;;;;;;5058541;28;20238;-78
2022/06/29 00:35:04;;;;;;;3.20;3.00;;;23.50;76.50;;;;;;5058454;28;20247;-77
2022/06/29 00:37:30;;;;;;;2.72;2.53;;;23.50;76.40;;;;;;5043542;28;20191;-78
2022/06/29 00:39:57;;;;;;;2.60;2.50;;;23.50;76.40;;;;;;5041660;28;20245;-78
2022/06/29 00:42:23;;;;;;;3.08;2.80;;;23.50;76.30;;;;;;5009273;28;20197;-79
2022/06/29 00:44:48;;;;;;;3.00;2.80;;;23.50;76.40;;;;;;5008397;28;20183;-80
2022/06/29 00:47:16;;;;;;;2.85;2.65;;;23.50;76.50;;;;;;5007665;28;20222;-77
2022/06/29 00:49:42;;;;;;;2.90;2.70;;;23.50;76.40;;;;;;5025054;28;20279;-78
2022/06/29 00:52:11;;;;;;;2.95;2.70;;;23.50;76.40;;;;;;5025085;28;20203;-78
2022/06/29 00:54:45;;;;;;;2.63;2.50;;;23.50;76.30;;;;;;5009352;28;20176;-78
2022/06/29 00:57:18;;;;;;;2.50;2.30;;;23.50;76.40;;;;;;5007632;28;20205;-77
2022/06/29 00:59:48;;;;;;;3.00;2.80;;;23.40;76.20;;;;;;5022802;28;20294;-78
2022/06/29 01:02:18;;;;;;;2.95;2.75;;;23.50;76.30;;;;;;5010980;28;20188;-78
2022/06/29 01:04:45;;;;;;;2.47;2.38;;;23.50;76.30;;;;;;5052885;28;20184;-79
2022/06/29 01:07:21;;;;;;;2.95;2.75;;;23.50;76.20;;;;;;5063657;28;20226;-78
2022/06/29 01:09:51;;;;;;;2.80;2.60;;;23.50;76.30;;;;;;5065424;28;20198;-78
2022/06/29 01:12:16;;;;;;;2.70;2.58;;;23.50;76.20;;;;;;5065226;28;20187;-80
2022/06/29 01:14:45;;;;;;;2.95;2.75;;;23.40;76.10;;;;;;5049416;28;20189;-80
2022/06/29 01:17:12;;;;;;;2.83;2.63;;;23.50;76.30;;;;;;5050137;28;20197;-79
2022/06/29 01:19:40;;;;;;;2.75;2.42;;;23.40;76.20;;;;;;5062300;28;20214;-78
2022/06/29 01:22:10;;;;;;;2.80;2.60;;;23.50;76.30;;;;;;5048528;28;20195;-80
2022/06/29 01:24:37;;;;;;;2.90;2.70;;;23.40;76.10;;;;;;5050510;28;20211;-78
2022/06/29 01:27:04;;;;;;;2.65;2.53;;;23.40;76.20;;;;;;5049426;28;20203;-82
2022/06/29 01:29:30;;;;;;;2.83;2.63;;;23.40;76.20;;;;;;5049488;28;20219;-81
2022/06/29 01:31:57;;;;;;;2.70;2.50;;;23.40;76.20;;;;;;5049226;28;20274;-80
2022/06/29 01:34:25;;;;;;;2.60;2.40;;;23.40;76.10;;;;;;5056716;28;20190;-81
2022/06/29 01:36:51;;;;;;;2.80;2.60;;;23.40;76.00;;;;;;5067507;28;20187;-79
2022/06/29 01:39:18;;;;;;;3.22;3.03;;;23.40;76.00;;;;;;5069200;28;20203;-81
2022/06/29 01:41:44;;;;;;;2.78;2.58;;;23.40;76.00;;;;;;5053312;28;20202;-79
2022/06/29 01:44:10;;;;;;;2.53;2.40;;;23.40;76.00;;;;;;5070585;28;20189;-78
2022/06/29 01:46:36;;;;;;;2.88;2.67;;;23.40;76.00;;;;;;5069597;28;20297;-78
2022/06/29 01:49:02;;;;;;;2.58;2.38;;;23.50;75.90;;;;;;5068770;28;20186;-79
2022/06/29 01:51:28;;;;;;;2.75;2.55;;;23.40;75.90;;;;;;5053304;28;20646;-82
2022/06/29 01:53:53;;;;;;;2.30;2.20;;;23.40;75.80;;;;;;5070248;28;20229;-78
2022/06/29 01:56:19;;;;;;;2.90;2.70;;;23.40;75.90;;;;;;5070214;28;20242;-78
2022/06/29 01:58:45;;;;;;;3.08;2.30;;;23.40;75.90;;;;;;5068870;28;20190;-79
2022/06/29 02:01:12;;;;;;;2.72;2.53;;;23.40;75.90;;;;;;5069951;28;20288;-78
2022/06/29 02:03:39;;;;;;;2.80;2.60;;;23.40;75.90;;;;;;5064791;28;20190;-78
2022/06/29 02:06:05;;;;;;;2.45;2.35;;;23.40;75.80;;;;;;5054875;28;20220;-79
2022/06/29 02:08:31;;;;;;;2.50;2.40;;;23.40;76.00;;;;;;5071286;28;20194;-81
2022/06/29 02:10:58;;;;;;;2.53;2.33;;;23.40;75.90;;;;;;5071462;28;20553;-77
2022/06/29 02:13:24;;;;;;;2.88;2.67;;;23.40;75.80;;;;;;5072047;28;20185;-80
2022/06/29 02:15:49;;;;;;;2.72;2.53;;;23.40;75.80;;;;;;5072237;28;20171;-79
2022/06/29 02:18:15;;;;;;;2.70;2.50;;;23.40;75.90;;;;;;5068056;28;20186;-79
2022/06/29 02:20:41;;;;;;;2.70;2.50;;;23.40;75.90;;;;;;5051590;28;20222;-78
2022/06/29 02:23:07;;;;;;;2.45;2.30;;;23.40;75.90;;;;;;5044883;28;20194;-78
2022/06/29 02:25:32;;;;;;;2.60;2.40;;;23.40;76.70;;;;;;5056827;28;20186;-77
2022/06/29 02:27:58;;;;;;;2.90;2.70;;;23.40;75.80;;;;;;5044011;28;20222;-78
2022/06/29 02:34:43;;;;;;;2.40;2.30;;;23.40;75.80;;;;;;5051873;28;20218;-79
2022/06/29 02:35:56;;;;;;;2.50;2.38;;;23.40;75.60;;;;;;5061393;28;20194;-77
2022/06/29 02:38:22;;;;;;;2.58;2.38;;;23.40;75.60;;;;;;5066051;28;20198;-77
2022/06/29 02:40:48;;;;;;;2.30;2.20;;;23.40;75.60;;;;;;5068597;28;20222;-78
2022/06/29 02:43:14;;;;;;;4.03;2.40;;;23.40;75.60;;;;;;5042981;28;20199;-77
2022/06/29 02:45:40;;;;;;;2.70;2.50;;;23.40;75.60;;;;;;5048930;28;20179;-77
2022/06/29 02:48:07;;;;;;;3.28;2.47;;;23.40;75.60;;;;;;5047918;28;20194;-79
2022/06/29 02:50:33;;;;;;;2.58;2.38;;;23.40;75.50;;;;;;5050440;28;20222;-78
2022/06/29 02:52:59;;;;;;;2.90;2.70;;;23.40;75.50;;;;;;5050613;28;20187;-77
2022/06/29 02:55:25;;;;;;;2.30;2.20;;;23.40;75.50;;;;;;5052660;28;20194;-79
2022/06/29 02:57:50;;;;;;;2.67;2.55;;;23.40;75.60;;;;;;5055006;28;20167;-80
2022/06/29 03:00:17;;;;;;;2.92;2.60;;;23.40;75.60;;;;;;5043962;28;20242;-79
2022/06/29 03:02:42;;;;;;;2.35;2.25;;;23.30;75.50;;;;;;5045954;28;20203;-78
2022/06/29 03:05:09;;;;;;;2.30;2.20;;;23.40;76.40;;;;;;5052484;28;20191;-79
2022/06/29 03:07:35;;;;;;;2.45;2.28;;;23.40;75.70;;;;;;5046011;28;20219;-82
2022/06/29 03:10:01;;;;;;;2.38;2.28;;;23.40;75.70;;;;;;5047624;28;20245;-78
2022/06/29 03:12:27;;;;;;;2.42;2.33;;;23.30;75.40;;;;;;5046932;28;20282;-78
2022/06/29 03:14:53;;;;;;;2.42;2.33;;;23.40;75.60;;;;;;5046400;28;20184;-77
2022/06/29 03:17:19;;;;;;;2.42;2.33;;;23.40;75.60;;;;;;5044142;28;20193;-78
2022/06/29 03:19:45;;;;;;;2.50;2.30;;;23.30;75.40;;;;;;5043645;28;20313;-78
2022/06/29 03:22:11;;;;;;;2.60;2.40;;;23.30;75.40;;;;;;5030678;28;20191;-78
2022/06/29 03:24:39;;;;;;;2.28;2.17;;;23.30;75.40;;;;;;5046997;28;20210;-78
2022/06/29 03:27:05;;;;;;;2.80;2.60;;;23.40;76.40;;;;;;5046020;28;20226;-77
2022/06/29 03:29:31;;;;;;;2.22;2.13;;;23.30;75.40;;;;;;5030317;28;20199;-78
2022/06/29 03:31:58;;;;;;;2.30;2.20;;;23.30;75.40;;;;;;5029785;28;20233;-78
2022/06/29 03:34:24;;;;;;;2.30;2.10;;;23.30;75.40;;;;;;5053497;28;20194;-77
2022/06/29 03:36:50;;;;;;;2.55;2.35;;;23.30;75.40;;;;;;5047700;28;20183;-78
2022/06/29 03:39:16;;;;;;;2.90;2.70;;;23.30;75.40;;;;;;5048405;28;20256;-78
2022/06/29 03:41:42;;;;;;;2.50;2.30;;;23.30;75.40;;;;;;5066593;28;20183;-77
2022/06/29 03:44:07;;;;;;;2.38;2.28;;;23.30;75.40;;;;;;5066104;28;20254;-81
2022/06/29 03:46:33;;;;;;;2.28;2.15;;;23.30;75.40;;;;;;5067179;28;20217;-78
2022/06/29 03:48:59;;;;;;;2.30;2.20;;;23.30;75.30;;;;;;5062687;28;20210;-78
2022/06/29 03:51:25;;;;;;;2.28;2.05;;;23.30;75.30;;;;;;5064804;28;20190;-78
2022/06/29 03:53:51;;;;;;;2.85;2.65;;;23.30;75.50;;;;;;5064978;28;20184;-77
2022/06/29 03:56:18;;;;;;;2.47;2.38;;;23.30;75.40;;;;;;5064880;28;20182;-78
2022/06/29 03:58:44;;;;;;;2.13;2.03;;;23.30;75.40;;;;;;5048282;28;20186;-78
2022/06/29 04:01:10;;;;;;;2.40;2.20;;;23.30;75.50;;;;;;5064653;28;20210;-77
2022/06/29 04:03:36;;;;;;;2.30;2.20;;;23.30;75.40;;;;;;5043524;28;20260;-80
2022/06/29 04:06:02;;;;;;;2.42;2.22;;;23.30;75.40;;;;;;5055761;28;20206;-79
2022/06/29 04:08:28;;;;;;;2.45;2.35;;;23.30;75.40;;;;;;5065024;28;20201;-78
2022/06/29 04:10:54;;;;;;;2.50;2.30;;;23.30;75.40;;;;;;5049249;28;20199;-78
2022/06/29 04:13:22;;;;;;;2.30;2.20;;;23.30;75.40;;;;;;5065986;28;20183;-78
2022/06/29 04:15:49;;;;;;;2.15;2.05;;;23.30;75.40;;;;;;5064780;28;20186;-77
2022/06/29 04:18:15;;;;;;;2.33;2.22;;;23.30;76.00;;;;;;5041895;28;20236;-75
2022/06/29 04:23:25;;;;;;;2.67;2.20;;;23.30;75.40;;;;;;5051199;28;20189;-75
2022/06/29 04:25:51;;;;;;;2.40;2.30;;;23.30;75.60;;;;;;5051258;28;20186;-75
2022/06/29 04:28:17;;;;;;;2.40;2.30;;;23.30;75.50;;;;;;5067360;28;20179;-75
2022/06/29 04:30:43;;;;;;;2.55;2.35;;;23.30;75.50;;;;;;5050994;28;20202;-76
2022/06/29 04:33:08;;;;;;;2.50;2.40;;;23.30;75.60;;;;;;5046363;28;20229;-75
2022/06/29 04:35:34;;;;;;;2.85;2.60;;;23.30;75.70;;;;;;5039200;28;20175;-75
2022/06/29 04:38:00;;;;;;;2.72;2.53;;;23.30;75.60;;;;;;5031766;28;20210;-74
2022/06/29 04:40:26;;;;;;;2.78;2.55;;;23.30;75.60;;;;;;5047724;28;20211;-74
2022/06/29 04:42:52;;;;;;;2.53;2.33;;;23.30;75.50;;;;;;5031336;28;20729;-75
2022/06/29 04:48:02;;;;;;;2.33;2.22;;;23.30;75.40;;;;;;5031304;28;20249;-76
2022/06/29 04:50:29;;;;;;;2.55;2.35;;;23.30;75.30;;;;;;5035197;28;20235;-75
2022/06/29 04:52:55;;;;;;;2.42;2.33;;;23.30;75.20;;;;;;5034958;28;20266;-75
2022/06/29 04:55:23;;;;;;;2.70;2.50;;;23.30;75.10;;;;;;5051624;28;20237;-75
2022/06/29 04:57:50;;;;;;;3.55;2.60;;;23.30;75.10;;;;;;5034441;28;20188;-74
2022/06/29 05:00:16;;;;;;;2.30;2.20;;;23.30;75.00;;;;;;5034591;28;20206;-75
2022/06/29 05:02:42;;;;;;;2.35;2.25;;;23.30;75.00;;;;;;5034591;28;20187;-75
2022/06/29 05:05:08;;;;;;;2.90;2.70;;;23.30;75.00;;;;;;5046338;28;20268;-74
2022/06/29 05:07:34;;;;;;;2.70;2.50;;;23.30;75.00;;;;;;5037834;28;20218;-75
2022/06/29 05:10:00;;;;;;;2.30;2.20;;;23.30;74.90;;;;;;5054388;28;20213;-77
2022/06/29 05:12:26;;;;;;;2.97;2.78;;;23.30;74.90;;;;;;5054857;28;20190;-75
2022/06/29 05:14:51;;;;;;;2.30;2.20;;;23.30;74.90;;;;;;5054946;28;20582;-75
2022/06/29 05:17:17;;;;;;;3.35;2.58;;;23.30;74.90;;;;;;5046458;28;20190;-75
2022/06/29 05:19:43;;;;;;;2.80;2.60;;;23.30;74.90;;;;;;5035223;28;20712;-76
2022/06/29 05:22:09;;;;;;;2.63;2.42;;;23.30;74.90;;;;;;5033555;28;20245;-75
2022/06/29 05:24:34;;;;;;;2.50;2.40;;;23.30;75.00;;;;;;5034399;28;20241;-76
2022/06/29 05:27:00;;;;;;;2.50;2.40;;;23.30;75.00;;;;;;5035464;28;20207;-75
2022/06/29 05:29:26;;;;;;;2.65;2.55;;;23.30;75.00;;;;;;5033701;28;20207;-75
2022/06/29 05:31:54;;;;;;;2.90;2.70;;;23.30;75.70;;;;;;5034601;28;20278;-75
2022/06/29 05:34:20;;;;;;;2.33;2.22;;;23.30;74.90;;;;;;5042787;28;20202;-75
2022/06/29 05:36:46;;;;;;;2.80;2.60;;;23.30;75.00;;;;;;5052579;28;20187;-75
2022/06/29 05:39:12;;;;;;;2.55;2.35;;;23.30;75.00;;;;;;5053964;28;20206;-75
2022/06/29 05:41:37;;;;;;;2.92;2.72;;;23.30;75.00;;;;;;5054292;28;20258;-75
2022/06/29 05:44:04;;;;;;;2.45;2.35;;;23.30;75.00;;;;;;5054747;28;20225;-75
2022/06/29 05:46:31;;;;;;;3.65;2.28;;;23.30;75.00;;;;;;5038125;28;20214;-75
2022/06/29 05:48:58;;;;;;;2.85;2.65;;;23.30;75.00;;;;;;5053481;28;20187;-76
2022/06/29 05:51:24;;;;;;;2.70;2.50;;;23.30;75.00;;;;;;5054201;28;20193;-75
2022/06/29 05:53:50;;;;;;;2.63;2.50;;;23.30;75.00;;;;;;5054640;28;20183;-74
2022/06/29 05:56:17;;;;;;;2.67;2.47;;;23.30;75.00;;;;;;5055218;28;20186;-76
2022/06/29 05:58:43;;;;;;;2.42;2.33;;;23.30;75.00;;;;;;5054234;28;20265;-76
2022/06/29 06:01:09;;;;;;;2.75;2.55;;;23.30;75.10;;;;;;5053974;28;20207;-76
2022/06/29 06:03:38;;;;;;;2.78;2.58;;;23.30;75.10;;;;;;5046331;28;20274;-76
2022/06/29 06:06:04;;;;;;;2.78;2.58;;;23.30;75.10;;;;;;5046556;28;20238;-76
2022/06/29 06:08:30;;;;;;;2.75;2.55;;;23.30;75.00;;;;;;5054717;28;20178;-76
2022/06/29 06:10:55;;;;;;;2.35;2.25;;;23.30;75.10;;;;;;5054487;28;20214;-77
2022/06/29 06:13:21;;;;;;;2.78;2.58;;;23.30;75.10;;;;;;5054457;28;20244;-77
2022/06/29 06:15:48;;;;;;;2.85;2.65;;;23.30;75.10;;;;;;5054212;28;20621;-76
2022/06/29 06:18:14;;;;;;;3.10;2.60;;;23.30;75.10;;;;;;5053302;28;20178;-77
2022/06/29 06:20:40;;;;;;;2.83;2.63;;;23.40;75.30;;;;;;5053923;28;20215;-77
2022/06/29 06:23:06;;;;;;;3.63;2.45;;;23.30;75.10;;;;;;5053707;28;20182;-78
2022/06/29 06:25:32;;;;;;;2.40;2.30;;;23.40;75.30;;;;;;5054019;28;20189;-76
2022/06/29 06:28:00;;;;;;;2.72;2.53;;;23.30;75.20;;;;;;5053319;28;20304;-77
2022/06/29 06:30:26;;;;;;;2.60;2.50;;;23.40;75.40;;;;;;5053955;28;20229;-77
2022/06/29 06:32:53;;;;;;;3.88;2.63;;;23.30;75.30;;;;;;5051002;28;20182;-77
2022/06/29 06:35:19;;;;;;;2.88;2.63;;;23.40;75.40;;;;;;5041966;28;20179;-76
2022/06/29 06:37:46;;;;;;;2.70;2.50;;;23.30;75.40;;;;;;5033039;28;20194;-77
2022/06/29 06:42:58;;;;;;;2.53;2.35;;;23.40;75.60;;;;;;5034039;28;20190;-77
2022/06/29 06:45:24;;;;;;;3.10;2.78;;;23.40;75.60;;;;;;5033741;28;20187;-77
2022/06/29 06:47:50;;;;;;;2.60;2.40;;;23.30;75.50;;;;;;5046621;28;20214;-77
2022/06/29 06:50:16;;;;;;;2.53;2.35;;;23.40;75.70;;;;;;5049710;28;20755;-77
2022/06/29 06:52:42;;;;;;;2.75;2.55;;;23.40;75.70;;;;;;5033057;28;20179;-76
2022/06/29 06:55:09;;;;;;;2.38;2.28;;;23.40;75.70;;;;;;5049918;28;20183;-76
2022/06/29 06:57:35;;;;;;;2.50;2.30;;;23.40;75.70;;;;;;5032386;28;20187;-76
2022/06/29 07:00:01;;;;;;;2.80;2.60;;;23.30;75.70;;;;;;5032977;28;20226;-76
2022/06/29 07:02:27;;;;;;;3.00;2.80;;;23.40;75.90;;;;;;5016604;28;20188;-76
2022/06/29 07:04:53;;;;;;;2.40;2.30;;;23.40;75.80;;;;;;5033795;28;20274;-76
2022/06/29 07:07:18;;;;;;;3.03;2.70;;;23.40;76.00;;;;;;5052020;28;20301;-77
2022/06/29 07:09:44;;;;;;;2.50;2.40;;;23.40;76.00;;;;;;5052595;28;20225;-77
2022/06/29 07:12:10;;;;;;;2.35;2.25;;;23.40;76.00;;;;;;5033775;28;20182;-78
2022/06/29 07:14:36;;;;;;;2.67;2.47;;;23.40;76.00;;;;;;5032796;28;20171;-76
2022/06/29 07:17:02;;;;;;;2.60;2.50;;;23.40;76.10;;;;;;5033620;28;20176;-77
2022/06/29 07:19:27;;;;;;;3.17;2.97;;;23.40;76.20;;;;;;5031568;28;20221;-76
2022/06/29 07:21:54;;;;;;;2.95;2.70;;;23.40;76.30;;;;;;5032426;28;20328;-77
2022/06/29 07:24:20;;;;;;;2.75;2.55;;;23.40;76.30;;;;;;5033643;28;20195;-76
2022/06/29 07:26:45;;;;;;;2.72;2.53;;;23.40;76.40;;;;;;5032166;28;20207;-77
2022/06/29 07:29:11;;;;;;;2.95;2.75;;;23.40;76.50;;;;;;5031911;28;20697;-77
2022/06/29 07:31:37;;;;;;;3.00;2.80;;;23.40;76.60;;;;;;5032518;28;20651;-77
2022/06/29 07:34:04;;;;;;;2.70;2.50;;;23.40;76.40;;;;;;5035478;28;20186;-77
2022/06/29 07:36:30;;;;;;;2.80;2.60;;;23.40;76.60;;;;;;5036002;28;20274;-77
2022/06/29 07:38:56;;;;;;;2.83;2.63;;;23.40;76.60;;;;;;5031323;28;20242;-76
2022/06/29 07:41:22;;;;;;;3.30;3.10;;;23.40;76.60;;;;;;5031953;28;20183;-77
2022/06/29 07:43:48;;;;;;;2.63;2.42;;;23.40;76.60;;;;;;5032030;28;20313;-77
2022/06/29 07:46:14;;;;;;;2.90;2.70;;;23.50;76.30;;;;;;5031955;28;20210;-77
2022/06/29 07:48:40;;;;;;;3.10;2.90;;;23.40;76.50;;;;;;5031295;28;20183;-77
2022/06/29 07:51:06;;;;;;;2.80;2.60;;;23.50;76.70;;;;;;5032043;28;20207;-76
2022/06/29 07:53:31;;;;;;;2.97;2.78;;;23.50;76.40;;;;;;5031889;28;20179;-77
2022/06/29 07:55:57;;;;;;;3.42;3.20;;;23.40;76.40;;;;;;5031571;28;20183;-77
2022/06/29 07:58:23;;;;;;;2.85;2.65;;;23.50;76.30;;;;;;5030942;28;20175;-77
2022/06/29 08:00:49;;;;;;;3.40;3.10;;;23.50;76.40;;;;;;5031937;28;20206;-76
2022/06/29 08:03:15;;;;;;;2.60;2.42;;;23.50;76.50;;;;;;5037207;28;20217;-76
2022/06/29 08:05:41;;;;;;;3.03;2.83;;;23.50;76.50;;;;;;5026889;28;20224;-77
2022/06/29 08:08:07;;;;;;;3.38;3.17;;;23.50;76.70;;;;;;5051331;28;20336;-76
2022/06/29 08:10:34;;;;;;;3.25;2.85;;;23.50;76.70;;;;;;5051491;28;20237;-77
2022/06/29 08:13:00;;;;;;;3.45;3.15;;;23.50;76.70;;;;;;5051522;28;20182;-77
2022/06/29 08:15:28;;;;;;;3.08;2.88;;;23.50;76.70;;;;;;5051368;28;20214;-76
2022/06/29 08:17:54;;;;;;;3.22;2.92;;;23.50;76.70;;;;;;5051270;28;20194;-77
2022/06/29 08:20:21;;;;;;;3.22;2.92;;;23.50;76.70;;;;;;5051357;28;20210;-76
2022/06/29 08:22:47;;;;;;;3.20;3.00;;;23.50;76.70;;;;;;5051441;28;20194;-77
2022/06/29 08:25:13;;;;;;;3.10;2.90;;;23.60;76.80;;;;;;5055436;28;20205;-76
2022/06/29 08:27:41;;;;;;;3.15;2.95;;;23.60;76.80;;;;;;5054697;28;20253;-77
2022/06/29 08:30:09;;;;;;;3.38;3.08;;;23.60;76.80;;;;;;5055286;28;20206;-77
2022/06/29 08:32:35;;;;;;;3.40;3.20;;;23.60;76.60;;;;;;5055596;28;20304;-76
2022/06/29 08:35:01;;;;;;;3.33;3.03;;;23.60;76.40;;;;;;5034987;28;20179;-76
2022/06/29 08:37:30;;;;;;;3.30;3.10;;;23.60;76.60;;;;;;5034653;28;20183;-79
2022/06/29 08:39:56;;;;;;;3.13;2.92;;;23.60;76.70;;;;;;5035594;28;20213;-77
2022/06/29 08:42:24;;;;;;;3.42;3.13;;;23.60;76.80;;;;;;5034997;28;20199;-77
2022/06/29 08:44:51;;;;;;;3.33;3.03;;;23.60;76.80;;;;;;5051779;28;20187;-76
2022/06/29 08:47:17;;;;;;;3.42;3.22;;;23.60;76.80;;;;;;5035085;28;20246;-77
2022/06/29 08:49:44;;;;;;;3.10;2.90;;;23.60;76.80;;;;;;5034238;28;20749;-76
2022/06/29 08:52:11;;;;;;;2.90;2.60;;;23.60;76.80;;;;;;5051695;28;20164;-77
2022/06/29 08:54:44;;;;;;;2.65;2.55;;;23.60;76.80;;;;;;5035281;28;20198;-77
2022/06/29 08:57:11;;;;;;;3.03;2.83;;;23.60;76.80;;;;;;5034981;28;20180;-77
2022/06/29 08:59:37;;;;;;;2.70;2.50;;;23.60;76.40;;;;;;5034208;28;20211;-77
2022/06/29 09:02:04;;;;;;;3.08;2.88;;;23.60;76.50;;;;;;5035117;28;20194;-76
2022/06/29 09:04:30;;;;;;;3.20;3.00;;;23.70;76.60;;;;;;5042734;28;20207;-76
2022/06/29 09:06:57;;;;;;;3.17;2.97;;;23.60;76.60;;;;;;5054067;28;20336;-77
2022/06/29 09:09:24;;;;;;;3.03;2.83;;;23.60;76.80;;;;;;5054409;28;20199;-77
2022/06/29 09:11:51;;;;;;;2.97;2.78;;;23.60;76.80;;;;;;5054671;28;20186;-76
2022/06/29 09:14:23;;;;;;;3.20;3.00;;;23.60;76.80;;;;;;5054736;28;20190;-77
2022/06/29 09:16:57;;;;;;;3.58;3.35;;;23.60;76.80;;;;;;5054636;28;20179;-77
2022/06/29 09:19:34;;;;;;;3.30;3.00;;;23.60;76.80;;;;;;5053720;28;20689;-77
2022/06/29 09:22:00;;;;;;;3.05;2.85;;;23.70;76.80;;;;;;5054549;28;20190;-76
2022/06/29 09:24:30;;;;;;;3.45;3.15;;;23.70;76.60;;;;;;5054660;28;20184;-77
2022/06/29 09:27:03;;;;;;;3.00;2.80;;;23.60;76.60;;;;;;5054063;28;20356;-77
2022/06/29 09:29:32;;;;;;;2.97;2.78;;;23.60;76.80;;;;;;5053865;28;20206;-77
2022/06/29 09:32:04;;;;;;;3.95;3.30;;;23.60;76.80;;;;;;5054300;28;20252;-77
2022/06/29 09:34:45;;;;;;;2.78;2.58;;;23.60;76.80;;;;;;5044500;28;20242;-76
2022/06/29 09:37:15;;;;;;;2.67;2.47;;;23.60;76.80;;;;;;5053922;28;20669;-77
2022/06/29 09:39:50;;;;;;;2.85;2.60;;;23.60;76.80;;;;;;5053304;28;20255;-77
2022/06/29 09:42:21;;;;;;;2.70;2.50;;;23.60;76.80;;;;;;5053951;28;20186;-77
2022/06/29 09:44:48;;;;;;;2.40;2.30;;;23.60;76.80;;;;;;5053957;28;20182;-76
2022/06/29 09:47:19;;;;;;;3.42;3.22;;;23.70;77.70;;;;;;5053751;28;20226;-77
2022/06/29 09:49:54;;;;;;;2.90;2.70;;;23.70;76.90;;;;;;5053336;28;20202;-77
2022/06/29 09:52:20;;;;;;;2.85;2.65;;;23.70;77.00;;;;;;5037443;28;20174;-77
2022/06/29 09:54:56;;;;;;;3.00;2.80;;;23.70;77.00;;;;;;5053883;28;20186;-77
2022/06/29 09:57:29;;;;;;;2.92;2.70;;;23.60;76.80;;;;;;5054814;28;20630;-76
2022/06/29 10:02:54;;;;;;;2.50;2.40;;;23.60;76.80;;;;;;5050899;28;20289;-77
2022/06/29 10:05:23;;;;;;;2.38;2.28;;;23.70;77.00;;;;;;5041836;28;20270;-76
2022/06/29 10:07:54;;;;;;;3.10;2.80;;;23.70;76.90;;;;;;5033215;28;20230;-76
2022/06/29 10:10:24;;;;;;;3.20;2.90;;;23.70;76.90;;;;;;5033622;28;20226;-76
2022/06/29 10:16:35;;;;;;;2.90;2.70;;;23.70;76.90;;;;;;5033421;28;20597;-77
2022/06/29 10:19:30;;;;;;;2.78;2.58;;;23.70;76.90;;;;;;5032396;28;20202;-76
2022/06/29 10:21:57;;;;;;;2.80;2.60;;;23.70;77.00;;;;;;5033156;28;20274;-77
2022/06/29 10:24:25;;;;;;;2.42;2.33;;;23.70;77.00;;;;;;5033181;28;20223;-77
2022/06/29 10:26:50;;;;;;;2.60;2.40;;;23.70;76.90;;;;;;5033253;28;20798;-78
2022/06/29 10:29:19;;;;;;;2.85;2.65;;;23.70;76.90;;;;;;5031907;28;20298;-77
2022/06/29 10:31:51;;;;;;;2.47;2.38;;;23.70;76.90;;;;;;5033283;28;20179;-77
2022/06/29 10:34:37;;;;;;;3.00;2.80;;;23.70;77.00;;;;;;5040973;28;20183;-77
2022/06/29 10:37:11;;;;;;;2.70;2.50;;;23.70;76.90;;;;;;5013027;28;20188;-77
2022/06/29 10:39:46;;;;;;;2.50;2.40;;;23.70;77.00;;;;;;5012440;28;20222;-77
2022/06/29 10:45:17;;;;;;;2.65;2.45;;;23.70;77.00;;;;;;5014307;28;20184;-77
2022/06/29 10:48:12;;;;;;;2.78;2.58;;;23.70;76.90;;;;;;5031705;28;20202;-76
2022/06/29 10:50:40;;;;;;;2.80;2.60;;;23.70;76.90;;;;;;5033525;28;20629;-76
2022/06/29 10:53:12;;;;;;;2.45;2.25;;;23.70;76.90;;;;;;5032879;28;20230;-76
2022/06/29 10:55:47;;;;;;;2.80;2.60;;;23.70;76.90;;;;;;5049101;28;20222;-77
2022/06/29 10:58:13;;;;;;;2.90;2.50;;;23.70;76.90;;;;;;5048509;28;20537;-76
2022/06/29 11:00:54;;;;;;;2.80;2.60;;;23.70;76.90;;;;;;5032370;28;20294;-76
2022/06/29 11:03:26;;;;;;;2.35;2.25;;;23.70;76.90;;;;;;5031559;28;20195;-76
2022/06/29 11:16:58;;;;;;;2.47;2.28;;;23.70;77.20;;;;;;5051864;28;20281;-76
2022/06/29 11:19:33;;;;;;;2.53;2.42;;;23.70;77.20;;;;;;5051042;28;20263;-76
2022/06/29 11:22:17;;;;;;;2.72;2.53;;;23.70;77.40;;;;;;5051919;28;20224;-77
2022/06/29 11:24:58;;;;;;;2.40;2.25;;;23.70;77.30;;;;;;5051987;28;20179;-78
2022/06/29 11:27:37;;;;;;;2.33;2.13;;;23.70;77.30;;;;;;5052371;28;20723;-76
2022/06/29 11:30:10;;;;;;;2.35;2.25;;;23.70;77.20;;;;;;5051252;28;20201;-76
2022/06/29 11:32:42;;;;;;;2.85;2.60;;;23.70;77.30;;;;;;5035395;28;20177;-76
2022/06/29 11:35:10;;;;;;;2.53;2.40;;;23.70;77.30;;;;;;5046700;28;20183;-76
2022/06/29 11:37:36;;;;;;;4.53;2.60;;;23.70;77.40;;;;;;5047948;28;20240;-76
2022/06/29 11:40:04;;;;;;;2.88;2.67;;;23.70;77.40;;;;;;5050839;28;20199;-76
2022/06/29 11:45:19;;;;;;;2.47;2.30;;;23.70;77.20;;;;;;5051558;28;20220;-77
2022/06/29 11:47:54;;;;;;;2.60;2.40;;;23.70;77.20;;;;;;5050739;28;20220;-76
2022/06/29 11:50:21;;;;;;;2.38;2.20;;;23.80;77.00;;;;;;5051650;28;20197;-77
2022/06/29 11:52:51;;;;;;;3.67;2.33;;;23.80;77.00;;;;;;5051285;28;20205;-77
2022/06/29 11:55:44;;;;;;;2.53;2.40;;;23.80;77.00;;;;;;5051645;28;20206;-77
2022/06/29 11:58:16;;;;;;;2.97;2.35;;;23.80;77.00;;;;;;5050276;28;20186;-76
2022/06/29 12:00:44;;;;;;;2.60;2.40;;;23.80;77.00;;;;;;5052421;28;20203;-76
2022/06/29 12:03:13;;;;;;;2.50;2.40;;;23.80;77.20;;;;;;5034621;28;20189;-77
2022/06/29 12:05:57;;;;;;;2.75;2.55;;;23.80;77.00;;;;;;5042291;28;20271;-76
2022/06/29 12:08:24;;;;;;;2.33;2.20;;;23.80;77.00;;;;;;5030560;28;20226;-77
2022/06/29 12:10:50;;;;;;;2.72;2.53;;;23.80;77.00;;;;;;5031461;28;20199;-77
2022/06/29 12:13:17;;;;;;;2.50;2.30;;;23.80;77.00;;;;;;5031192;28;20163;-77
2022/06/29 12:15:43;;;;;;;2.33;2.20;;;23.80;77.00;;;;;;5031291;28;20176;-77
2022/06/29 12:18:09;;;;;;;2.50;2.28;;;23.80;77.00;;;;;;5030799;28;20261;-76
2022/06/29 12:20:35;;;;;;;2.40;2.20;;;23.80;77.00;;;;;;5031224;28;20221;-77
2022/06/29 12:23:01;;;;;;;2.22;2.03;;;23.80;77.00;;;;;;5031043;28;20565;-76
2022/06/29 12:25:26;;;;;;;2.60;2.40;;;23.80;77.00;;;;;;5031515;28;20187;-76
2022/06/29 12:27:52;;;;;;;3.00;2.47;;;23.80;77.10;;;;;;5030839;28;20215;-77
2022/06/29 12:30:18;;;;;;;2.92;2.60;;;23.80;77.30;;;;;;5032367;28;20678;-77
2022/06/29 12:32:44;;;;;;;2.35;2.20;;;23.80;77.20;;;;;;5031184;28;20188;-76
2022/06/29 12:35:09;;;;;;;2.50;2.40;;;23.80;77.00;;;;;;5039175;28;20183;-76
2022/06/29 12:37:35;;;;;;;2.35;2.25;;;23.80;77.10;;;;;;5047542;28;20564;-76
2022/06/29 12:40:01;;;;;;;2.50;2.30;;;23.80;77.00;;;;;;5050355;28;20217;-77
2022/06/29 12:42:27;;;;;;;3.10;2.60;;;23.80;77.00;;;;;;5050825;28;20197;-76
2022/06/29 12:44:52;;;;;;;2.80;2.58;;;23.80;77.20;;;;;;5050721;28;20186;-77
2022/06/29 12:47:18;;;;;;;2.38;2.28;;;23.80;77.30;;;;;;5050697;28;20218;-76
2022/06/29 12:49:44;;;;;;;2.80;2.60;;;23.80;77.10;;;;;;5049908;28;20674;-77
2022/06/29 12:52:10;;;;;;;3.05;2.28;;;23.80;77.00;;;;;;5050602;28;20214;-77
2022/06/29 12:54:36;;;;;;;2.40;2.20;;;23.80;77.10;;;;;;5051019;28;20225;-77
2022/06/29 12:57:03;;;;;;;4.00;2.53;;;23.80;77.10;;;;;;5050902;28;20247;-76
2022/06/29 12:59:28;;;;;;;4.03;2.53;;;23.80;77.10;;;;;;5050445;28;20236;-76
2022/06/29 13:01:55;;;;;;;2.60;2.40;;;23.80;77.00;;;;;;5051996;28;20175;-77
2022/06/29 13:04:20;;;;;;;2.25;2.05;;;23.80;77.20;;;;;;5044376;28;20592;-76
2022/06/29 13:06:46;;;;;;;2.63;2.40;;;23.80;77.90;;;;;;5038879;28;20222;-77
2022/06/29 13:09:12;;;;;;;4.13;2.40;;;23.80;77.60;;;;;;5031267;28;20175;-77
2022/06/29 13:11:38;;;;;;;2.55;2.38;;;23.80;77.50;;;;;;5034703;28;20184;-76
2022/06/29 13:14:04;;;;;;;2.78;2.58;;;23.90;77.50;;;;;;5034382;28;20191;-77
2022/06/29 13:16:29;;;;;;;3.08;2.30;;;23.80;77.40;;;;;;5034188;28;20206;-76
2022/06/29 13:18:55;;;;;;;3.20;2.58;;;23.80;77.40;;;;;;5034916;28;20180;-77
2022/06/29 13:21:21;;;;;;;3.05;2.30;;;23.80;77.40;;;;;;5034380;28;20167;-77
2022/06/29 13:23:47;;;;;;;2.40;2.20;;;23.80;77.50;;;;;;5035024;28;20198;-78